createdAt,value
2023-05-10T00:00:08.299Z,3.40
2023-05-10T00:03:01.403Z,3.60
2023-05-10T00:05:29.571Z,3.60
2023-05-10T00:07:57.811Z,3.80
2023-05-10T00:10:25.525Z,3.50
2023-05-10T00:12:53.455Z,3.50
2023-05-10T00:15:21.396Z,3.90
2023-05-10T00:17:49.388Z,4.10
2023-05-10T00:20:17.647Z,4.00
2023-05-10T00:22:46.010Z,3.90
2023-05-10T00:25:13.929Z,4.60
2023-05-10T00:27:46.637Z,4.80
2023-05-10T00:30:14.784Z,4.40
2023-05-10T00:32:44.384Z,4.50
2023-05-10T00:35:12.329Z,4.90
2023-05-10T00:37:40.158Z,4.60
2023-05-10T00:40:08.546Z,4.90
2023-05-10T00:42:36.582Z,4.60
2023-05-10T00:45:05.393Z,4.80
2023-05-10T00:47:34.247Z,4.50
2023-05-10T00:50:02.831Z,4.30
2023-05-10T00:52:31.608Z,4.50
2023-05-10T00:55:01.231Z,4.90
2023-05-10T00:57:29.514Z,4.60
2023-05-10T00:59:58.929Z,4.70
2023-05-10T01:02:26.940Z,5.00
2023-05-10T01:04:56.099Z,5.30
2023-05-10T01:07:25.008Z,4.70
2023-05-10T01:09:52.928Z,5.30
2023-05-10T01:12:21.183Z,5.50
2023-05-10T01:14:50.378Z,5.00
2023-05-10T01:17:18.765Z,5.50
2023-05-10T01:19:46.684Z,5.30
2023-05-10T01:22:56.886Z,5.10
2023-05-10T01:25:39.955Z,5.00
2023-05-10T01:28:45.787Z,4.60
2023-05-10T01:31:29.841Z,4.70
2023-05-10T01:34:02.320Z,5.30
2023-05-10T01:36:36.329Z,5.70
2023-05-10T01:39:22.348Z,5.70
2023-05-10T01:42:11.565Z,5.90
2023-05-10T01:45:03.452Z,5.90
2023-05-10T01:47:46.000Z,5.70
2023-05-10T01:50:20.139Z,5.10
2023-05-10T01:53:00.169Z,5.40
2023-05-10T01:55:36.269Z,5.40
2023-05-10T01:58:09.068Z,5.50
2023-05-10T02:00:40.949Z,5.30
2023-05-10T02:03:11.417Z,5.60
2023-05-10T02:05:42.331Z,5.30
2023-05-10T02:08:11.168Z,5.30
2023-05-10T02:10:41.382Z,5.20
2023-05-10T02:13:11.177Z,5.50
2023-05-10T02:15:41.099Z,5.20
2023-05-10T02:18:11.840Z,5.60
2023-05-10T02:20:40.688Z,5.10
2023-05-10T02:23:10.818Z,5.60
2023-05-10T02:25:40.069Z,5.80
2023-05-10T02:28:11.545Z,5.70
2023-05-10T02:30:40.368Z,6.10
2023-05-10T02:33:09.371Z,7.00
2023-05-10T02:35:39.392Z,9.60
2023-05-10T02:38:08.536Z,10.00
2023-05-10T02:40:38.221Z,10.00
2023-05-10T02:43:10.385Z,9.00
2023-05-10T02:45:40.698Z,9.10
2023-05-10T02:48:08.750Z,9.50
2023-05-10T02:50:38.165Z,8.50
2023-05-10T02:53:16.480Z,7.80
2023-05-10T02:55:49.757Z,8.50
2023-05-10T02:58:20.315Z,7.90
2023-05-10T03:00:48.213Z,7.40
2023-05-10T03:03:16.081Z,7.20
2023-05-10T03:05:43.994Z,7.60
2023-05-10T03:08:12.353Z,8.10
2023-05-10T03:10:55.616Z,7.60
2023-05-10T03:13:40.981Z,7.50
2023-05-10T03:16:23.122Z,7.80
2023-05-10T03:19:12.137Z,7.40
2023-05-10T03:21:46.225Z,6.60
2023-05-10T03:24:16.666Z,6.30
2023-05-10T03:26:46.739Z,6.00
2023-05-10T03:29:18.682Z,7.00
2023-05-10T03:31:47.030Z,6.60
2023-05-10T03:34:15.728Z,6.10
2023-05-10T03:36:43.681Z,6.30
2023-05-10T03:39:11.707Z,5.80
2023-05-10T03:41:39.882Z,6.40
2023-05-10T03:44:07.794Z,6.10
2023-05-10T03:46:35.793Z,5.60
2023-05-10T03:49:04.485Z,5.90
2023-05-10T03:51:32.839Z,6.30
2023-05-10T03:54:00.965Z,5.50
2023-05-10T03:56:29.430Z,5.90
2023-05-10T03:58:57.572Z,5.90
2023-05-10T04:01:25.484Z,6.00
2023-05-10T04:03:53.510Z,6.50
2023-05-10T04:06:21.484Z,7.70
2023-05-10T04:08:49.345Z,8.30
2023-05-10T04:11:17.405Z,6.80
2023-05-10T04:13:47.376Z,7.20
2023-05-10T04:16:16.693Z,6.90
2023-05-10T04:18:44.503Z,6.20
2023-05-10T04:21:14.589Z,6.30
2023-05-10T04:23:42.472Z,6.50
2023-05-10T04:26:10.339Z,7.10
2023-05-10T04:28:38.942Z,6.30
2023-05-10T04:31:09.065Z,6.80
2023-05-10T04:33:38.081Z,6.80
2023-05-10T04:36:06.672Z,6.70
2023-05-10T04:38:34.450Z,6.80
2023-05-10T04:41:10.038Z,6.80
2023-05-10T04:43:39.346Z,6.10
2023-05-10T04:46:08.450Z,6.90
2023-05-10T04:48:36.655Z,6.70
2023-05-10T04:51:05.195Z,6.30
2023-05-10T04:53:33.496Z,7.30
2023-05-10T04:56:01.276Z,6.30
2023-05-10T04:58:29.231Z,6.70
2023-05-10T05:00:57.051Z,6.50
2023-05-10T05:03:24.969Z,6.80
2023-05-10T05:05:52.953Z,6.40
2023-05-10T05:08:20.808Z,6.30
2023-05-10T05:10:51.279Z,5.80
2023-05-10T05:13:19.590Z,6.00
2023-05-10T05:15:47.680Z,5.00
2023-05-10T05:18:15.666Z,5.70
2023-05-10T05:20:43.485Z,5.80
2023-05-10T05:23:11.399Z,5.60
2023-05-10T05:25:39.657Z,5.00
2023-05-10T05:28:07.522Z,5.10
2023-05-10T05:30:35.478Z,4.60
2023-05-10T05:33:03.449Z,4.60
2023-05-10T05:35:31.310Z,4.90
2023-05-10T05:37:59.194Z,4.90
2023-05-10T05:40:26.971Z,4.60
2023-05-10T05:42:54.920Z,5.10
2023-05-10T05:45:25.221Z,5.60
2023-05-10T05:47:53.520Z,6.30
2023-05-10T05:50:21.387Z,7.10
2023-05-10T05:52:49.173Z,7.40
2023-05-10T05:55:17.350Z,7.10
2023-05-10T05:57:45.429Z,6.90
2023-05-10T06:00:14.177Z,6.50
2023-05-10T06:02:42.061Z,6.60
2023-05-10T06:05:10.269Z,7.10
2023-05-10T06:07:38.193Z,6.40
2023-05-10T06:10:07.084Z,6.40
2023-05-10T06:12:35.645Z,5.70
2023-05-10T06:15:04.981Z,5.70
2023-05-10T06:17:33.390Z,5.60
2023-05-10T06:20:01.218Z,5.70
2023-05-10T06:22:29.120Z,5.40
2023-05-10T06:24:57.038Z,5.60
2023-05-10T06:27:25.480Z,5.50
2023-05-10T06:30:02.102Z,5.30
2023-05-10T06:32:37.496Z,4.90
2023-05-10T06:35:05.658Z,5.20
2023-05-10T06:37:33.353Z,4.90
2023-05-10T06:40:01.590Z,4.80
2023-05-10T06:42:29.600Z,4.90
2023-05-10T06:44:57.410Z,4.70
2023-05-10T06:47:25.300Z,3.90
2023-05-10T06:49:53.197Z,3.90
2023-05-10T06:52:21.105Z,3.60
2023-05-10T06:54:49.312Z,3.70
2023-05-10T06:57:30.422Z,3.60
2023-05-10T07:00:00.139Z,3.80
2023-05-10T07:02:28.373Z,3.20
2023-05-10T07:04:57.986Z,3.30
2023-05-10T07:09:55.761Z,2.90
2023-05-10T07:12:23.704Z,3.50
2023-05-10T07:14:51.606Z,3.40
2023-05-10T07:17:19.648Z,3.60
2023-05-10T07:19:47.615Z,4.20
2023-05-10T07:22:18.565Z,3.10
2023-05-10T07:24:46.629Z,3.10
2023-05-10T07:27:14.617Z,2.90
2023-05-10T07:29:42.463Z,2.70
2023-05-10T07:32:10.417Z,2.70
2023-05-10T07:34:38.240Z,2.80
2023-05-10T07:37:07.331Z,2.80
2023-05-10T07:39:35.177Z,2.80
2023-05-10T07:42:03.853Z,3.10
2023-05-10T07:44:31.730Z,3.00
2023-05-10T07:46:59.494Z,2.70
2023-05-10T07:49:27.439Z,3.30
2023-05-10T07:51:55.412Z,2.50
2023-05-10T07:54:23.268Z,2.50
2023-05-10T07:56:52.318Z,2.50
2023-05-10T07:59:20.950Z,2.60
2023-05-10T08:01:48.954Z,2.70
2023-05-10T08:04:17.164Z,2.50
2023-05-10T08:06:45.080Z,2.30
2023-05-10T08:09:12.989Z,2.20
2023-05-10T08:11:41.171Z,2.60
2023-05-10T08:14:09.158Z,2.30
2023-05-10T08:16:37.049Z,2.60
2023-05-10T08:19:05.656Z,2.40
2023-05-10T08:21:34.573Z,2.30
2023-05-10T08:24:02.751Z,2.50
2023-05-10T08:26:30.791Z,2.70
2023-05-10T08:28:58.847Z,2.20
2023-05-10T08:31:26.755Z,2.30
2023-05-10T08:33:54.666Z,2.10
2023-05-10T08:36:25.191Z,2.60
2023-05-10T08:38:53.249Z,2.60
2023-05-10T08:41:30.666Z,2.50
2023-05-10T08:43:59.298Z,2.70
2023-05-10T08:46:28.634Z,2.50
2023-05-10T08:48:57.942Z,2.50
2023-05-10T08:51:28.123Z,2.80
2023-05-10T08:53:56.458Z,2.60
2023-05-10T08:56:25.221Z,2.30
2023-05-10T08:58:53.509Z,2.40
2023-05-10T09:01:22.629Z,2.30
2023-05-10T09:03:51.808Z,2.10
2023-05-10T09:06:19.807Z,2.70
2023-05-10T09:08:48.793Z,2.80
2023-05-10T09:11:17.346Z,2.80
2023-05-10T09:13:45.703Z,2.20
2023-05-10T09:16:21.376Z,2.70
2023-05-10T09:18:50.903Z,3.00
2023-05-10T09:21:21.645Z,3.30
2023-05-10T09:23:51.218Z,3.50
2023-05-10T09:26:23.940Z,4.30
2023-05-10T09:28:54.537Z,4.30
2023-05-10T09:31:22.632Z,3.70
2023-05-10T09:33:51.894Z,3.10
2023-05-10T09:36:19.751Z,2.80
2023-05-10T09:38:52.920Z,3.20
2023-05-10T09:41:23.315Z,2.40
2023-05-10T09:43:51.535Z,2.30
2023-05-10T09:46:19.691Z,2.80
2023-05-10T09:48:48.762Z,1.90
2023-05-10T09:51:21.668Z,2.00
2023-05-10T09:53:51.650Z,2.20
2023-05-10T09:56:36.048Z,2.20
2023-05-10T09:59:04.571Z,2.20
2023-05-10T10:01:32.612Z,2.10
2023-05-10T10:04:06.702Z,2.20
2023-05-10T10:06:38.986Z,2.30
2023-05-10T10:09:08.515Z,1.80
2023-05-10T10:11:38.174Z,2.20
2023-05-10T10:14:07.056Z,2.10
2023-05-10T10:16:35.022Z,2.30
2023-05-10T10:19:03.153Z,2.00
2023-05-10T10:21:32.065Z,2.20
2023-05-10T10:24:00.044Z,2.30
2023-05-10T10:26:28.531Z,2.60
2023-05-10T10:29:24.862Z,2.20
2023-05-10T10:32:28.424Z,2.20
2023-05-10T10:34:57.363Z,2.20
2023-05-10T10:37:42.257Z,2.20
2023-05-10T10:40:30.519Z,2.10
2023-05-10T10:43:22.816Z,1.90
2023-05-10T10:46:11.011Z,1.90
2023-05-10T10:48:38.976Z,1.60
2023-05-10T10:51:07.146Z,1.80
2023-05-10T10:53:35.075Z,1.90
2023-05-10T10:56:16.392Z,2.00
2023-05-10T10:58:54.737Z,2.20
2023-05-10T11:01:22.961Z,1.90
2023-05-10T11:04:00.302Z,1.90
2023-05-10T11:06:36.527Z,2.10
2023-05-10T11:09:13.772Z,1.80
2023-05-10T11:11:59.600Z,1.70
2023-05-10T11:14:28.012Z,2.20
2023-05-10T11:16:55.919Z,2.00
2023-05-10T11:19:28.770Z,1.90
2023-05-10T11:22:05.790Z,1.60
2023-05-10T11:24:34.822Z,1.70
2023-05-10T11:27:03.146Z,2.70
2023-05-10T11:29:31.280Z,2.70
2023-05-10T11:32:00.672Z,2.00
2023-05-10T11:34:31.431Z,2.20
2023-05-10T11:36:59.530Z,2.10
2023-05-10T11:39:32.056Z,1.90
2023-05-10T11:42:00.330Z,2.90
2023-05-10T11:44:35.417Z,2.20
2023-05-10T11:47:04.196Z,2.20
2023-05-10T11:49:32.407Z,2.30
2023-05-10T11:52:11.992Z,2.20
2023-05-10T11:54:51.848Z,2.70
2023-05-10T11:57:23.729Z,2.30
2023-05-10T11:59:56.101Z,2.20
2023-05-10T12:02:24.347Z,2.10
2023-05-10T12:04:53.083Z,1.90
2023-05-10T12:07:21.255Z,2.70
2023-05-10T12:10:09.708Z,2.30
2023-05-10T12:12:44.746Z,2.00
2023-05-10T12:15:21.276Z,2.20
2023-05-10T12:17:50.262Z,2.10
2023-05-10T12:20:23.740Z,1.90
2023-05-10T12:22:54.323Z,1.80
2023-05-10T12:25:24.407Z,2.20
2023-05-10T12:27:54.844Z,2.90
2023-05-10T12:33:10.808Z,1.70
2023-05-10T12:36:08.146Z,1.80
2023-05-10T12:38:44.396Z,2.20
2023-05-10T12:41:14.683Z,1.70
2023-05-10T12:43:43.173Z,1.70
2023-05-10T12:46:12.374Z,1.90
2023-05-10T12:48:42.860Z,2.50
2023-05-10T12:51:12.897Z,2.40
2023-05-10T12:53:43.714Z,2.30
2023-05-10T12:56:13.063Z,1.70
2023-05-10T12:58:41.339Z,1.80
2023-05-10T13:01:09.570Z,1.80
2023-05-10T13:03:37.586Z,1.80
2023-05-10T13:06:06.638Z,2.10
2023-05-10T13:08:34.782Z,1.70
2023-05-10T13:11:03.725Z,1.90
2023-05-10T13:13:31.553Z,1.90
2023-05-10T13:15:59.526Z,1.70
2023-05-10T13:18:27.607Z,1.90
2023-05-10T13:20:56.828Z,2.80
2023-05-10T13:23:24.907Z,1.70
2023-05-10T13:25:53.151Z,1.70
2023-05-10T13:28:21.506Z,2.20
2023-05-10T13:30:49.401Z,1.80
2023-05-10T13:33:17.326Z,1.90
2023-05-10T13:35:45.183Z,1.90
2023-05-10T13:38:14.793Z,1.90
2023-05-10T13:40:42.965Z,1.90
2023-05-10T13:43:11.056Z,1.90
2023-05-10T13:45:40.027Z,1.80
2023-05-10T13:48:07.998Z,1.70
2023-05-10T13:50:36.120Z,2.70
2023-05-10T13:53:26.725Z,2.10
2023-05-10T13:55:54.543Z,2.30
2023-05-10T13:58:22.275Z,2.60
2023-05-10T14:00:50.135Z,1.60
2023-05-10T14:03:18.125Z,1.70
2023-05-10T14:05:46.709Z,1.90
2023-05-10T14:08:15.707Z,1.80
2023-05-10T14:10:43.805Z,1.80
2023-05-10T14:13:11.844Z,1.80
2023-05-10T14:15:39.810Z,1.70
2023-05-10T14:18:07.846Z,2.30
2023-05-10T14:20:35.868Z,1.60
2023-05-10T14:23:04.341Z,2.20
2023-05-10T14:25:32.203Z,2.10
2023-05-10T14:28:00.132Z,1.60
2023-05-10T14:30:28.044Z,2.50
2023-05-10T14:32:56.578Z,1.80
2023-05-10T14:35:25.248Z,2.10
2023-05-10T14:37:53.419Z,2.00
2023-05-10T14:40:22.180Z,1.70
2023-05-10T14:42:51.227Z,2.20
2023-05-10T14:45:19.532Z,2.40
2023-05-10T14:47:47.528Z,2.60
2023-05-10T14:50:32.350Z,2.10
2023-05-10T14:53:04.434Z,1.90
2023-05-10T14:55:32.441Z,2.30
2023-05-10T14:58:00.557Z,2.10
2023-05-10T15:00:31.200Z,2.30
2023-05-10T15:05:28.680Z,3.20
2023-05-10T15:07:57.415Z,1.90
2023-05-10T15:10:25.446Z,2.20
2023-05-10T15:12:53.461Z,2.40
2023-05-10T15:15:21.926Z,2.70
2023-05-10T15:17:50.190Z,2.40
2023-05-10T15:20:18.293Z,3.00
2023-05-10T15:22:46.116Z,2.60
2023-05-10T15:25:15.632Z,2.60
2023-05-10T15:27:44.714Z,4.20
2023-05-10T15:30:13.396Z,2.50
2023-05-10T15:32:41.614Z,3.50
2023-05-10T15:35:11.261Z,2.80
2023-05-10T15:37:39.205Z,3.00
2023-05-10T15:40:07.832Z,1.90
2023-05-10T15:42:36.182Z,1.90
2023-05-10T15:45:05.063Z,2.00
2023-05-10T15:47:33.928Z,2.10
2023-05-10T15:50:02.106Z,2.60
2023-05-10T15:52:30.143Z,2.20
2023-05-10T15:54:58.185Z,3.50
2023-05-10T15:57:26.202Z,2.90
2023-05-10T15:59:54.124Z,1.90
2023-05-10T16:02:23.537Z,1.80
2023-05-10T16:04:51.875Z,2.30
2023-05-10T16:07:19.870Z,2.00
2023-05-10T16:09:49.525Z,2.10
2023-05-10T16:12:17.517Z,2.30
2023-05-10T16:14:46.488Z,2.60
2023-05-10T16:17:15.566Z,2.70
2023-05-10T16:19:43.736Z,2.10
2023-05-10T16:22:12.155Z,2.00
2023-05-10T16:24:40.238Z,2.20
2023-05-10T16:27:08.209Z,2.50
2023-05-10T16:29:36.166Z,1.90
2023-05-10T16:32:06.255Z,3.00
2023-05-10T16:34:34.179Z,1.90
2023-05-10T16:37:02.206Z,1.90
2023-05-10T16:39:30.306Z,2.20
2023-05-10T16:41:58.113Z,2.10
2023-05-10T16:44:26.205Z,2.60
2023-05-10T16:46:55.063Z,2.30
2023-05-10T16:49:25.312Z,2.50
2023-05-10T16:51:54.173Z,2.80
2023-05-10T16:54:22.128Z,2.50
2023-05-10T16:56:50.428Z,2.60
2023-05-10T16:59:18.529Z,2.60
2023-05-10T17:01:47.103Z,2.20
2023-05-10T17:04:15.629Z,2.80
2023-05-10T17:06:43.860Z,2.80
2023-05-10T17:09:12.322Z,2.50
2023-05-10T17:11:40.191Z,2.40
2023-05-10T17:14:08.552Z,2.70
2023-05-10T17:16:36.456Z,2.60
2023-05-10T17:19:04.385Z,2.50
2023-05-10T17:21:32.384Z,3.40
2023-05-10T17:24:09.207Z,3.80
2023-05-10T17:26:37.399Z,3.20
2023-05-10T17:29:05.411Z,2.90
2023-05-10T17:31:33.330Z,3.30
2023-05-10T17:34:05.753Z,3.00
2023-05-10T17:36:34.438Z,3.60
2023-05-10T17:39:05.905Z,3.50
2023-05-10T17:41:38.765Z,3.80
2023-05-10T17:44:07.439Z,4.50
2023-05-10T17:46:35.346Z,4.30
2023-05-10T17:49:03.210Z,4.40
2023-05-10T17:51:32.653Z,4.00
2023-05-10T17:54:00.707Z,4.60
2023-05-10T17:56:28.902Z,4.60
2023-05-10T17:58:56.937Z,3.90
2023-05-10T18:01:24.939Z,5.40
2023-05-10T18:03:53.176Z,5.70
2023-05-10T18:06:21.065Z,6.00
2023-05-10T18:08:49.448Z,5.60
2023-05-10T18:11:17.558Z,5.40
2023-05-10T18:13:45.406Z,5.90
2023-05-10T18:16:13.615Z,5.20
2023-05-10T18:18:41.888Z,5.60
2023-05-10T18:21:10.073Z,5.10
2023-05-10T18:23:38.396Z,5.90
2023-05-10T18:26:08.625Z,7.80
2023-05-10T18:28:37.277Z,11.10
2023-05-10T18:31:05.172Z,12.80
2023-05-10T18:33:33.054Z,12.80
2023-05-10T18:36:04.154Z,12.70
2023-05-10T18:38:32.127Z,13.10
2023-05-10T18:40:59.998Z,10.90
2023-05-10T18:43:27.891Z,13.00
2023-05-10T18:45:55.895Z,12.40
2023-05-10T18:48:23.836Z,11.70
2023-05-10T18:50:51.800Z,11.50
2023-05-10T18:53:19.796Z,11.20
2023-05-10T18:55:57.252Z,9.80
2023-05-10T18:58:28.082Z,10.20
2023-05-10T19:03:24.911Z,8.80
2023-05-10T19:05:52.754Z,7.00
2023-05-10T19:08:20.875Z,5.60
2023-05-10T19:10:48.926Z,5.00
2023-05-10T19:13:16.911Z,4.40
2023-05-10T19:15:44.751Z,4.30
2023-05-10T19:18:15.366Z,4.00
2023-05-10T19:23:11.474Z,4.50
2023-05-10T19:25:39.423Z,5.40
2023-05-10T19:28:10.894Z,5.10
2023-05-10T19:30:38.894Z,5.60
2023-05-10T19:33:06.977Z,6.00
2023-05-10T19:35:35.112Z,4.80
2023-05-10T19:38:03.102Z,5.00
2023-05-10T19:40:30.990Z,5.70
2023-05-10T19:43:00.414Z,6.60
2023-05-10T19:45:28.292Z,6.70
2023-05-10T19:47:57.566Z,7.80
2023-05-10T19:50:26.253Z,7.00
2023-05-10T19:52:54.298Z,7.10
2023-05-10T19:55:28.388Z,6.70
2023-05-10T19:57:56.882Z,6.80
2023-05-10T20:00:27.276Z,7.30
2023-05-10T20:02:56.067Z,6.70
2023-05-10T20:05:24.652Z,7.00
2023-05-10T20:07:52.667Z,7.90
2023-05-10T20:10:22.630Z,7.00
2023-05-10T20:15:24.812Z,5.30
2023-05-10T20:17:57.719Z,4.90
2023-05-10T20:20:27.376Z,5.30
2023-05-10T20:22:58.882Z,5.10
2023-05-10T20:25:29.342Z,5.40
2023-05-10T20:27:58.820Z,5.60
2023-05-10T20:30:33.581Z,5.40
2023-05-10T20:33:09.472Z,5.70
2023-05-10T20:35:38.124Z,5.30
2023-05-10T20:38:10.430Z,6.10
2023-05-10T20:40:38.455Z,6.00
2023-05-10T20:43:09.156Z,5.50
2023-05-10T20:45:39.748Z,6.10
2023-05-10T20:50:38.910Z,5.30
2023-05-10T20:53:09.043Z,5.80
2023-05-10T20:55:37.193Z,5.60
2023-05-10T20:58:05.824Z,5.80
2023-05-10T21:00:38.099Z,5.90
2023-05-10T21:03:09.266Z,5.60
2023-05-10T21:05:39.771Z,5.60
2023-05-10T21:08:10.667Z,6.00
2023-05-10T21:13:08.737Z,5.20
2023-05-10T21:15:39.483Z,4.80
2023-05-10T21:18:09.081Z,5.10
2023-05-10T21:20:36.970Z,4.90
2023-05-10T21:23:04.888Z,4.70
2023-05-10T21:25:32.599Z,4.40
2023-05-10T21:28:00.788Z,4.90
2023-05-10T21:30:28.626Z,5.50
2023-05-10T21:33:03.589Z,5.80
2023-05-10T21:35:31.867Z,5.80
2023-05-10T21:37:59.886Z,5.60
2023-05-10T21:40:32.243Z,5.80
2023-05-10T21:43:01.060Z,5.90
2023-05-10T21:45:32.932Z,5.40
2023-05-10T21:48:00.851Z,5.20
2023-05-10T21:50:32.901Z,5.20
2023-05-10T21:53:02.788Z,4.80
2023-05-10T21:55:33.493Z,4.70
2023-05-10T21:58:02.080Z,4.50
2023-05-10T22:00:34.268Z,4.60
2023-05-10T22:03:02.580Z,4.20
2023-05-10T22:05:33.402Z,4.40
2023-05-10T22:08:01.334Z,4.90
2023-05-10T22:10:33.147Z,4.90
2023-05-10T22:13:01.081Z,4.40
2023-05-10T22:15:29.101Z,4.70
2023-05-10T22:17:57.160Z,4.10
2023-05-10T22:20:25.141Z,4.30
2023-05-10T22:22:54.857Z,4.60
2023-05-10T22:25:22.853Z,4.10
2023-05-10T22:27:50.704Z,4.40
2023-05-10T22:30:19.912Z,4.40
2023-05-10T22:32:48.146Z,4.30
2023-05-10T22:35:16.186Z,4.30
2023-05-10T22:37:43.975Z,4.40
2023-05-10T22:40:12.332Z,4.10
2023-05-10T22:42:40.139Z,4.80
2023-05-10T22:45:08.795Z,4.70
2023-05-10T22:47:36.834Z,4.30
2023-05-10T22:50:05.180Z,4.10
2023-05-10T22:52:33.197Z,4.10
2023-05-10T22:55:01.084Z,4.10
2023-05-10T22:57:28.931Z,4.40
2023-05-10T22:59:56.859Z,5.80
2023-05-10T23:02:25.079Z,4.20
2023-05-10T23:04:52.917Z,4.20
2023-05-10T23:07:21.095Z,4.20
2023-05-10T23:09:48.955Z,4.40
2023-05-10T23:12:17.112Z,4.30
2023-05-10T23:14:46.660Z,4.30
2023-05-10T23:17:14.622Z,4.10
2023-05-10T23:19:42.667Z,4.10
2023-05-10T23:22:10.376Z,4.10
2023-05-10T23:24:39.301Z,3.80
2023-05-10T23:27:07.338Z,4.30
2023-05-10T23:29:35.296Z,4.00
2023-05-10T23:32:03.207Z,3.80
2023-05-10T23:34:31.087Z,3.50
2023-05-10T23:36:58.942Z,4.00
2023-05-10T23:39:26.787Z,3.40
2023-05-10T23:41:54.935Z,3.40
2023-05-10T23:44:22.726Z,3.30
2023-05-10T23:46:51.310Z,3.70
2023-05-10T23:49:19.207Z,3.40
2023-05-10T23:51:47.109Z,3.90
2023-05-10T23:54:15.100Z,3.60
2023-05-10T23:56:43.010Z,3.90
2023-05-10T23:59:11.154Z,3.20
